Time;durP1;ratioP1;P1;durP2;ratioP2;P2;SDS_P1;SDS_P2;PMS_P1;PMS_P2;Temp;Humidity;BMP_temperature;BMP_pressure;BME280_temperature;BME280_humidity;BME280_pressure;Samples;Min_cycle;Max_cycle;Signal;HPM_P1;HPM_P2
2023/03/28 00:02:22;;;;;;;9.10;4.20;;;;;;;0.19;97.13;102479.59;6209291;23;20391;-92
2023/03/28 00:04:48;;;;;;;11.55;4.53;;;;;;;0.05;97.42;102465.38;6209834;23;20036;-89
2023/03/28 00:07:14;;;;;;;9.55;4.32;;;;;;;-0.02;97.21;102459.13;6209487;23;20434;-90
2023/03/28 00:09:39;;;;;;;8.55;4.78;;;;;;;0.18;97.56;102497.03;6205779;23;20407;-91
2023/03/28 00:12:05;;;;;;;8.82;4.72;;;;;;;-0.05;97.92;102469.53;6208507;23;20012;-89
2023/03/28 00:14:30;;;;;;;8.93;4.68;;;;;;;0.26;98.43;102520.75;6231939;23;20016;-91
2023/03/28 00:16:56;;;;;;;12.23;4.82;;;;;;;0.22;99.15;102516.31;6207641;23;20158;-90
2023/03/28 00:19:21;;;;;;;7.70;4.22;;;;;;;0.14;99.08;102510.03;6209319;23;19996;-90
2023/03/28 00:21:49;;;;;;;9.50;4.85;;;;;;;0.06;99.07;102509.91;6207139;23;20009;-89
2023/03/28 00:24:17;;;;;;;10.55;4.30;;;;;;;-0.18;99.10;102464.91;6209499;23;20015;-90
2023/03/28 00:26:44;;;;;;;9.15;4.55;;;;;;;-0.25;99.63;102456.09;6209107;23;20008;-92
2023/03/28 00:29:19;;;;;;;10.40;4.68;;;;;;;-0.16;100.00;102477.19;6208975;23;20043;-90
2023/03/28 00:31:46;;;;;;;8.93;4.70;;;;;;;0.04;100.00;102516.81;6209709;23;20011;-90
2023/03/28 00:34:12;;;;;;;8.25;5.03;;;;;;;-0.29;100.00;102459.50;6208777;23;20410;-90
2023/03/28 00:36:38;;;;;;;9.35;4.80;;;;;;;-0.04;100.00;102513.19;6207760;23;20019;-88
2023/03/28 00:39:05;;;;;;;13.15;7.15;;;;;;;-0.35;100.00;102461.97;6211584;23;20058;-90
2023/03/28 00:41:34;;;;;;;11.85;7.07;;;;;;;-0.16;100.00;102495.53;6209424;23;20593;-90
2023/03/28 00:44:00;;;;;;;12.15;6.18;;;;;;;-0.24;100.00;102497.09;6210697;23;20591;-91
2023/03/28 00:46:31;;;;;;;11.48;5.65;;;;;;;-0.31;100.00;102475.16;6209189;23;20004;-90
2023/03/28 00:49:02;;;;;;;10.48;6.38;;;;;;;-0.09;100.00;102523.56;6210107;23;20009;-91
2023/03/28 00:51:32;;;;;;;14.98;8.20;;;;;;;-0.16;100.00;102507.72;6210026;23;20004;-91
2023/03/28 00:54:01;;;;;;;11.00;6.22;;;;;;;-0.10;100.00;102526.16;6210650;23;20023;-89
2023/03/28 00:56:31;;;;;;;10.15;6.00;;;;;;;-0.44;100.00;102470.53;6211146;23;20016;-91
2023/03/28 00:58:57;;;;;;;9.95;6.00;;;;;;;-0.25;100.00;102516.28;6209655;23;20051;-90
2023/03/28 01:01:23;;;;;;;10.15;5.70;;;;;;;-0.28;100.00;102503.13;6209362;23;20007;-90
2023/03/28 01:03:55;;;;;;;7.65;5.72;;;;;;;-0.44;100.00;102490.56;6208445;23;20004;-92
2023/03/28 01:06:22;;;;;;;13.43;6.18;;;;;;;-0.26;100.00;102517.09;6209403;23;20005;-90
2023/03/28 01:08:49;;;;;;;13.55;6.05;;;;;;;-0.30;100.00;102512.66;6210000;23;20017;-91
2023/03/28 01:11:16;;;;;;;11.00;6.00;;;;;;;-0.36;100.00;102502.09;6209897;23;20000;-90
2023/03/28 01:13:47;;;;;;;12.52;6.72;;;;;;;-0.41;100.00;102496.75;6210430;23;20028;-89
2023/03/28 01:16:14;;;;;;;11.63;7.05;;;;;;;-0.52;100.00;102480.81;6217627;23;20015;-91
2023/03/28 01:18:45;;;;;;;11.55;6.50;;;;;;;-0.64;100.00;102459.66;6235512;23;20068;-90
2023/03/28 01:21:32;;;;;;;12.70;6.72;;;;;;;-0.54;100.00;102479.94;6261051;22;19992;-89
2023/03/28 01:24:06;;;;;;;11.10;6.95;;;;;;;-0.29;100.00;102519.69;6237529;23;20013;-91
2023/03/28 01:26:48;;;;;;;12.70;6.75;;;;;;;-0.29;100.00;102523.19;6235265;23;19997;-90
2023/03/28 01:30:08;;;;;;;10.32;6.85;;;;;;;-0.30;100.00;102515.28;6233612;23;20004;-89
2023/03/28 01:32:55;;;;;;;15.05;7.07;;;;;;;-0.35;100.00;102509.06;6150866;23;20009;-89
2023/03/28 01:35:23;;;;;;;9.57;6.20;;;;;;;-0.35;100.00;102511.69;6152163;23;20432;-90
2023/03/28 01:38:07;;;;;;;10.23;6.30;;;;;;;-0.40;100.00;102508.97;6151874;23;20033;-89
2023/03/28 01:40:41;;;;;;;11.90;6.55;;;;;;;-0.45;100.00;102508.00;6149482;23;20017;-90
2023/03/28 01:43:31;;;;;;;11.63;6.43;;;;;;;-0.47;100.00;102508.81;6150688;23;20019;-91
2023/03/28 01:46:20;;;;;;;12.88;6.45;;;;;;;-0.57;100.00;102498.16;6154361;23;20025;-90
2023/03/28 01:48:53;;;;;;;12.88;7.05;;;;;;;-0.55;100.00;102492.94;6148285;23;20005;-90
2023/03/28 01:51:29;;;;;;;11.10;6.18;;;;;;;-0.56;100.00;102497.31;6147873;23;20023;-90
2023/03/28 01:54:29;;;;;;;11.60;6.35;;;;;;;-0.56;100.00;102496.44;6146932;23;20013;-91
2023/03/28 01:57:01;;;;;;;14.45;6.65;;;;;;;-0.57;100.00;102500.78;6124102;23;20043;-90
2023/03/28 01:59:35;;;;;;;12.40;6.28;;;;;;;-0.61;100.00;102495.44;6170720;23;20013;-88
2023/03/28 02:02:23;;;;;;;12.73;6.38;;;;;;;-0.66;100.00;102495.34;6175240;23;20017;-91
2023/03/28 02:04:50;;;;;;;12.13;6.80;;;;;;;-0.65;100.00;102496.22;6151605;23;20129;-89
2023/03/28 02:07:20;;;;;;;11.18;6.35;;;;;;;-0.69;100.00;102495.28;6216561;23;20043;-89
2023/03/28 02:09:47;;;;;;;16.85;6.90;;;;;;;-0.78;100.00;102495.09;6235427;23;20001;-91
2023/03/28 02:12:23;;;;;;;14.88;6.57;;;;;;;-0.78;100.00;102501.19;6236241;23;19997;-89
2023/03/28 02:14:51;;;;;;;10.77;6.38;;;;;;;-0.90;100.00;102479.13;6236303;23;19992;-89
2023/03/28 02:17:20;;;;;;;11.50;6.22;;;;;;;-0.86;100.00;102499.25;6263216;22;20004;-91
2023/03/28 02:19:54;;;;;;;12.73;6.95;;;;;;;-1.05;100.00;102470.06;6263700;22;20003;-90
2023/03/28 02:22:45;;;;;;;12.30;7.22;;;;;;;-0.93;100.00;102485.16;6238806;23;20027;-90
2023/03/28 02:25:11;;;;;;;11.05;6.72;;;;;;;-0.86;100.00;102494.03;6239294;23;20068;-90
2023/03/28 02:27:39;;;;;;;12.23;6.93;;;;;;;-0.93;100.00;102489.50;6237530;23;20013;-91
2023/03/28 02:30:06;;;;;;;13.30;7.10;;;;;;;-0.92;100.00;102488.66;6213967;23;20012;-89
2023/03/28 02:32:32;;;;;;;9.82;6.68;;;;;;;-0.99;100.00;102481.53;6218165;23;20016;-90
2023/03/28 02:34:59;;;;;;;11.45;6.45;;;;;;;-0.99;100.00;102476.31;6213211;23;20019;-90
2023/03/28 02:38:02;;;;;;;12.38;7.13;;;;;;;-0.91;100.00;102493.06;6215141;23;20087;-92
2023/03/28 02:40:34;;;;;;;15.23;7.38;;;;;;;-0.95;100.00;102486.88;6212834;23;20011;-88
2023/03/28 02:43:28;;;;;;;10.15;6.50;;;;;;;-1.02;100.00;102480.59;6215032;23;20509;-92
2023/03/28 02:45:53;;;;;;;;;;;;;;;-0.98;100.00;102496.34;6217458;23;20004;-90
2023/03/28 02:48:45;;;;;;;11.80;7.00;;;;;;;-1.08;100.00;102483.09;6213052;23;19919;-91
2023/03/28 02:51:23;;;;;;;10.13;6.47;;;;;;;-1.03;100.00;102488.41;6214088;23;20005;-90
2023/03/28 02:53:59;;;;;;;9.23;7.03;;;;;;;-1.13;100.00;102482.09;6214691;23;20004;-91
2023/03/28 02:56:38;;;;;;;14.45;6.97;;;;;;;-1.10;100.00;102482.16;6211999;23;20008;-89
2023/03/28 02:59:14;;;;;;;10.50;7.07;;;;;;;-1.36;100.00;102450.19;6238484;23;20138;-90
2023/03/28 03:01:40;;;;;;;11.95;7.65;;;;;;;-1.21;100.00;102475.81;6212774;23;20032;-90
2023/03/28 03:04:06;;;;;;;13.45;7.32;;;;;;;-1.17;100.00;102476.75;6216980;23;20031;-90
2023/03/28 03:06:34;;;;;;;12.88;6.85;;;;;;;-1.26;100.00;102461.72;6218387;23;20005;-91
2023/03/28 03:09:00;;;;;;;10.02;7.22;;;;;;;-1.26;100.00;102472.19;6216515;23;20048;-91
2023/03/28 03:11:27;;;;;;;12.77;7.38;;;;;;;-1.26;100.00;102478.28;6215007;23;20172;-90
2023/03/28 03:13:53;;;;;;;13.50;7.80;;;;;;;-1.30;100.00;102486.03;6214623;23;20093;-92
2023/03/28 03:16:18;;;;;;;14.52;8.50;;;;;;;-1.32;100.00;102477.28;6216979;23;20585;-89
2023/03/28 03:18:44;;;;;;;13.23;7.70;;;;;;;-1.43;100.00;102461.34;6210704;23;20011;-90
2023/03/28 03:21:09;;;;;;;10.40;7.43;;;;;;;-1.43;100.00;102477.00;6209913;23;20014;-91
2023/03/28 03:23:35;;;;;;;13.68;8.27;;;;;;;-1.51;100.00;102461.13;6209920;23;20312;-91
2023/03/28 03:26:01;;;;;;;12.23;7.72;;;;;;;-1.61;100.00;102456.56;6236199;23;20024;-91
2023/03/28 03:28:26;;;;;;;10.10;8.25;;;;;;;-1.45;100.00;102481.31;6234438;23;20465;-90
2023/03/28 03:30:52;;;;;;;17.85;8.68;;;;;;;-1.55;100.00;102456.72;6211245;23;20100;-93
2023/03/28 03:33:17;;;;;;;13.10;8.43;;;;;;;-1.53;100.00;102464.59;6211603;23;20135;-91
2023/03/28 03:35:44;;;;;;;12.15;8.57;;;;;;;-1.42;100.00;102488.34;6230414;23;19993;-90
2023/03/28 03:38:10;;;;;;;13.25;8.55;;;;;;;-1.65;100.00;102449.50;6237787;23;20003;-90
2023/03/28 03:40:36;;;;;;;11.02;8.30;;;;;;;-1.58;100.00;102464.47;6262773;22;20052;-90
2023/03/28 03:43:01;;;;;;;12.25;8.68;;;;;;;-1.64;100.00;102452.97;6237976;23;20003;-92
2023/03/28 03:45:26;;;;;;;17.00;8.95;;;;;;;-1.60;100.00;102450.47;6238186;23;20011;-91
2023/03/28 03:47:52;;;;;;;14.18;9.02;;;;;;;-1.55;100.00;102468.88;6238687;23;19996;-88
2023/03/28 03:50:17;;;;;;;12.10;8.25;;;;;;;-1.45;100.00;102491.78;6237703;23;20005;-92
2023/03/28 03:52:43;;;;;;;11.85;8.23;;;;;;;-1.57;100.00;102458.41;6229862;23;20007;-91
2023/03/28 03:55:09;;;;;;;13.52;8.65;;;;;;;-1.60;100.00;102463.53;6225702;23;20012;-89
2023/03/28 03:57:34;;;;;;;14.38;9.32;;;;;;;-1.68;100.00;102451.13;6243334;23;20004;-90
2023/03/28 04:00:00;;;;;;;13.60;9.18;;;;;;;-1.71;100.00;102451.97;6217779;23;20004;-90
2023/03/28 04:02:26;;;;;;;15.93;9.70;;;;;;;-1.64;100.00;102472.13;6214746;23;20009;-89
2023/03/28 04:04:52;;;;;;;18.40;10.02;;;;;;;-1.81;100.00;102448.22;6238526;23;20734;-90
2023/03/28 04:07:18;;;;;;;15.38;9.68;;;;;;;-1.92;100.00;102438.34;6213155;23;20000;-90
2023/03/28 04:09:43;;;;;;;17.55;9.63;;;;;;;-1.85;100.00;102440.25;6211520;23;20462;-89
2023/03/28 04:12:10;;;;;;;14.45;9.10;;;;;;;-1.95;100.00;102420.00;6212050;23;20314;-90
2023/03/28 04:14:35;;;;;;;14.45;9.75;;;;;;;-1.82;100.00;102445.56;6212736;23;20062;-90
2023/03/28 04:17:03;;;;;;;15.02;9.60;;;;;;;-1.79;100.00;102458.72;6210124;23;20040;-91
2023/03/28 04:19:28;;;;;;;13.40;9.70;;;;;;;-1.68;100.00;102475.50;6211620;23;20422;-90
2023/03/28 04:21:55;;;;;;;16.55;10.65;;;;;;;-1.82;100.00;102456.00;6209095;23;20056;-90
2023/03/28 04:24:23;;;;;;;11.98;10.10;;;;;;;-1.78;100.00;102471.78;6210401;23;20004;-89
2023/03/28 04:26:49;;;;;;;18.05;11.15;;;;;;;-1.83;100.00;102452.53;6208975;23;20343;-89
2023/03/28 04:29:16;;;;;;;15.55;10.20;;;;;;;-1.69;100.00;102478.97;6210416;23;20004;-90
2023/03/28 04:31:48;;;;;;;18.73;10.93;;;;;;;-1.69;100.00;102473.75;6210890;23;20004;-90
2023/03/28 04:34:18;;;;;;;17.73;10.95;;;;;;;-1.81;100.00;102463.00;6210857;23;20084;-91
2023/03/28 04:36:45;;;;;;;19.55;11.63;;;;;;;-1.76;100.00;102483.16;6209014;23;20004;-91
2023/03/28 04:39:14;;;;;;;14.98;11.68;;;;;;;-2.20;100.00;102405.44;6210229;23;20299;-90
2023/03/28 04:41:40;;;;;;;17.98;11.98;;;;;;;-1.97;100.00;102438.22;6210814;23;20063;-90
2023/03/28 04:44:05;;;;;;;19.30;13.73;;;;;;;-2.07;100.00;102424.06;6211576;23;20005;-92
2023/03/28 04:46:31;;;;;;;18.85;12.85;;;;;;;-1.94;100.00;102447.88;6211156;23;20010;-89
2023/03/28 04:48:56;;;;;;;14.82;12.77;;;;;;;-1.87;100.00;102457.63;6209439;23;20016;-91
2023/03/28 04:51:21;;;;;;;18.67;13.35;;;;;;;-2.07;100.00;102433.63;6210272;23;20009;-90
2023/03/28 04:53:47;;;;;;;21.20;14.35;;;;;;;-2.11;100.00;102430.03;6210694;23;20004;-90
2023/03/28 04:56:12;;;;;;;20.77;14.23;;;;;;;-1.83;100.00;102486.47;6211901;23;20423;-90
2023/03/28 04:58:40;;;;;;;19.65;13.13;;;;;;;-1.91;100.00;102467.09;6211352;23;20005;-90
2023/03/28 05:01:09;;;;;;;21.17;15.40;;;;;;;-2.06;100.00;102441.47;6210739;23;20008;-91
2023/03/28 05:03:36;;;;;;;22.85;14.43;;;;;;;-1.95;100.00;102480.91;6208253;23;20009;-90
2023/03/28 05:06:02;;;;;;;18.45;14.82;;;;;;;-2.04;100.00;102463.28;6209931;23;20036;-89
2023/03/28 05:08:28;;;;;;;18.90;15.30;;;;;;;-1.91;100.00;102487.09;6207006;23;20020;-89
2023/03/28 05:10:54;;;;;;;20.27;15.77;;;;;;;-1.94;100.00;102482.66;6210803;23;20067;-90
2023/03/28 05:13:19;;;;;;;20.75;15.43;;;;;;;-2.03;100.00;102482.44;6208823;23;20032;-91
2023/03/28 05:15:46;;;;;;;19.67;16.08;;;;;;;-1.89;100.00;102491.50;6233770;23;20036;-90
2023/03/28 05:18:12;;;;;;;21.48;15.95;;;;;;;-1.95;100.00;102477.41;6207456;23;20036;-90
2023/03/28 05:20:37;;;;;;;22.83;18.27;;;;;;;-2.16;100.00;102460.34;6209158;23;20011;-91
2023/03/28 05:23:04;;;;;;;24.77;18.00;;;;;;;-1.85;100.00;102503.78;6216189;23;20427;-90
2023/03/28 05:25:30;;;;;;;25.55;18.65;;;;;;;-2.06;100.00;102466.69;6209699;23;20008;-90
2023/03/28 05:27:56;;;;;;;26.08;17.95;;;;;;;-2.10;100.00;102452.66;6209179;23;20011;-89
2023/03/28 05:30:21;;;;;;;24.48;18.92;;;;;;;-2.10;100.00;102455.28;6208799;23;20004;-91
2023/03/28 05:32:46;;;;;;;24.25;18.88;;;;;;;-2.10;100.00;102457.00;6210556;23;20019;-91
2023/03/28 05:35:14;;;;;;;26.50;17.50;;;;;;;-1.97;100.00;102482.56;6210566;23;20012;-91
2023/03/28 05:37:40;;;;;;;24.48;18.85;;;;;;;-1.85;100.00;102500.28;6211952;23;20008;-92
2023/03/28 05:40:09;;;;;;;23.80;19.13;;;;;;;-1.85;100.00;102500.28;6232709;23;20024;-90
2023/03/28 05:42:36;;;;;;;25.15;18.40;;;;;;;-1.96;100.00;102488.72;6236514;23;19996;-90
2023/03/28 05:45:06;;;;;;;25.50;18.77;;;;;;;-1.91;100.00;102489.72;6237153;23;20000;-90
2023/03/28 05:47:32;;;;;;;26.65;18.50;;;;;;;-1.84;100.00;102508.19;6237807;23;20010;-90
2023/03/28 05:49:57;;;;;;;23.65;18.00;;;;;;;-1.86;100.00;102502.03;6236667;23;20058;-89
2023/03/28 05:52:22;;;;;;;25.10;19.30;;;;;;;-1.76;100.00;102511.88;6236815;23;20008;-90
2023/03/28 05:54:48;;;;;;;30.92;19.98;;;;;;;-1.79;100.00;102498.75;6235965;23;20009;-89
2023/03/28 10:52:58;;;;;;;4.65;2.10;;;;;;;14.83;31.71;102386.00;6218042;23;20027;-88
2023/03/28 10:56:01;;;;;;;4.60;2.28;;;;;;;15.13;34.33;102367.69;6218220;23;20393;-90
2023/03/28 11:22:00;;;;;;;6.45;2.95;;;;;;;19.18;27.39;102335.81;6220601;22;20035;-90
2023/03/28 11:24:42;;;;;;;6.78;2.67;;;;;;;19.64;25.90;102328.31;6220884;23;20351;-89
2023/03/28 16:28:53;;;;;;;;;;;;;;;;;;;;;
2023/03/28 16:37:39;;;;;;;6.70;3.15;;;;;;;8.52;49.87;101844.50;6247558;23;20022;-86
2023/03/28 16:40:05;;;;;;;5.97;3.10;;;;;;;8.59;49.57;101861.16;6246460;23;20049;-86
2023/03/28 16:42:33;;;;;;;8.07;3.70;;;;;;;8.72;50.05;101886.44;6251862;23;20457;-90
2023/03/28 16:45:01;;;;;;;5.95;2.83;;;;;;;8.53;49.83;101856.88;6251503;23;20012;-92
2023/03/28 16:47:27;;;;;;;6.18;3.00;;;;;;;8.44;50.41;101841.19;6251750;23;20000;-86
2023/03/28 16:49:53;;;;;;;5.43;3.17;;;;;;;8.52;50.52;101859.56;6249331;23;20035;-89
2023/03/28 16:52:19;;;;;;;5.57;3.35;;;;;;;8.56;50.33;101872.69;6238769;23;20345;-92
2023/03/28 16:54:47;;;;;;;5.95;3.10;;;;;;;8.46;50.47;101853.50;6209527;23;20040;-93
2023/03/28 16:57:13;;;;;;;5.35;3.33;;;;;;;8.67;51.53;101883.06;6235046;23;20019;-89
2023/03/28 16:59:38;;;;;;;5.70;3.70;;;;;;;8.66;52.00;101886.63;6210062;23;20062;-93
2023/03/28 17:02:04;;;;;;;6.07;3.42;;;;;;;8.54;51.40;101873.69;6235439;23;20008;-90
2023/03/28 17:04:29;;;;;;;6.63;3.35;;;;;;;8.43;51.15;101868.63;6207196;23;20208;-91
2023/03/28 17:06:55;;;;;;;4.57;2.92;;;;;;;8.32;51.92;101874.19;6210933;23;20031;-89
2023/03/28 17:09:23;;;;;;;5.47;2.35;;;;;;;8.27;53.24;101886.66;6209550;23;20008;-91
2023/03/28 17:11:48;;;;;;;4.30;2.05;;;;;;;8.02;54.50;101867.84;6210372;23;20473;-88
2023/03/28 17:14:14;;;;;;;3.83;2.20;;;;;;;8.00;55.67;101882.91;6235912;23;20035;-90
2023/03/28 17:16:40;;;;;;;3.78;1.92;;;;;;;7.81;55.49;101871.00;6210925;23;20034;-89
2023/03/28 17:19:06;;;;;;;2.88;2.20;;;;;;;7.56;56.12;101865.38;6239684;23;20000;-88
2023/03/28 17:21:32;;;;;;;4.00;2.33;;;;;;;7.56;58.78;101860.94;6238227;23;20008;-90
2023/03/28 17:23:58;;;;;;;3.10;2.20;;;;;;;7.42;59.89;101855.09;6253501;22;20028;-90
2023/03/28 17:26:23;;;;;;;3.67;1.80;;;;;;;7.52;61.51;101882.22;6239655;22;19992;-89
2023/03/28 17:28:50;;;;;;;4.68;2.05;;;;;;;7.51;61.65;101883.16;6266527;22;20131;-88
2023/03/28 17:31:18;;;;;;;3.17;2.10;;;;;;;7.39;61.11;101863.09;6265313;22;19996;-90
2023/03/28 17:33:44;;;;;;;2.40;1.80;;;;;;;7.42;62.71;101869.19;6238495;22;20017;-91
2023/03/28 17:36:21;;;;;;;5.72;3.17;;;;;;;7.18;63.34;101859.09;6267032;22;20002;-90
2023/03/28 17:38:49;;;;;;;3.13;2.25;;;;;;;6.84;67.02;101838.63;6265688;22;19992;-90
2023/03/28 17:41:15;;;;;;;5.90;3.35;;;;;;;6.69;69.22;101838.94;6240111;23;20003;-89
2023/03/28 17:43:40;;;;;;;5.78;4.55;;;;;;;6.75;69.40;101859.97;6241995;23;20031;-91
2023/03/28 17:46:07;;;;;;;5.20;3.28;;;;;;;6.52;68.87;101830.41;6215265;23;20004;-91
2023/03/28 17:48:32;;;;;;;6.05;3.10;;;;;;;6.57;69.81;101853.25;6241291;23;20098;-88
2023/03/28 17:50:58;;;;;;;3.53;2.90;;;;;;;6.53;71.59;101832.19;6241610;23;20004;-95
2023/03/28 21:13:05;;;;;;;4.25;3.00;;;;;;;4.45;98.20;101657.53;6212984;22;20103;-88
2023/03/28 21:15:31;;;;;;;4.32;3.38;;;;;;;4.30;99.03;101636.63;6209371;23;20411;-88
2023/03/28 21:18:03;;;;;;;4.47;3.13;;;;;;;4.36;98.84;101654.16;6207758;23;20020;-90
2023/03/28 21:20:34;;;;;;;6.18;3.55;;;;;;;4.32;98.69;101640.13;6215239;23;20379;-89
2023/03/28 21:22:59;;;;;;;4.60;3.35;;;;;;;4.18;98.00;101624.50;6212955;23;20009;-90
2023/03/28 21:25:50;;;;;;;3.80;3.40;;;;;;;4.55;98.79;101673.22;6216922;23;20212;-89
2023/03/28 21:28:22;;;;;;;4.10;3.15;;;;;;;4.26;98.38;101629.66;6218562;23;20036;-89
2023/03/28 21:31:09;;;;;;;4.68;2.70;;;;;;;4.38;97.90;101640.03;6211478;23;20008;-91
2023/03/28 21:33:39;;;;;;;3.90;2.97;;;;;;;4.56;98.03;101675.88;6213309;23;20036;-89
2023/03/28 21:36:07;;;;;;;4.30;3.17;;;;;;;4.61;98.49;101683.72;6219330;23;20031;-89
2023/03/28 21:38:41;;;;;;;4.85;3.30;;;;;;;4.54;98.18;101671.50;6216974;23;20046;-89
2023/03/28 21:41:08;;;;;;;4.13;3.22;;;;;;;4.50;97.41;101660.09;6213747;23;20005;-87
2023/03/28 21:43:34;;;;;;;3.67;3.15;;;;;;;4.45;98.16;101639.06;6213259;23;20027;-90
2023/03/28 21:46:01;;;;;;;3.55;3.00;;;;;;;4.60;97.35;101656.47;6208818;23;20004;-88
2023/03/28 21:48:40;;;;;;;5.43;3.20;;;;;;;4.45;97.08;101638.22;6217485;23;20016;-90
2023/03/28 21:51:05;;;;;;;4.15;3.28;;;;;;;4.46;97.61;101642.59;6210395;23;20306;-90
2023/03/28 21:53:33;;;;;;;4.78;3.13;;;;;;;4.62;97.53;101665.22;6208956;23;20099;-88
2023/03/28 21:56:13;;;;;;;4.13;3.20;;;;;;;4.60;97.49;101645.03;6209384;23;20535;-90
2023/03/28 21:58:39;;;;;;;5.03;4.03;;;;;;;4.47;97.52;101607.41;6217654;23;20012;-90
2023/03/28 22:01:05;;;;;;;3.78;3.47;;;;;;;4.64;96.79;101637.09;6221667;23;20016;-90
2023/03/28 22:03:45;;;;;;;4.78;3.70;;;;;;;4.31;96.68;101580.41;6221373;23;20019;-89
2023/03/28 22:06:11;;;;;;;4.55;3.67;;;;;;;4.38;97.40;101589.97;6214252;23;20482;-90
2023/03/28 22:08:38;;;;;;;5.88;3.97;;;;;;;4.66;97.67;101630.00;6207679;23;20099;-89
2023/03/28 22:11:12;;;;;;;6.22;3.85;;;;;;;4.62;96.99;101616.88;6217444;23;20004;-90
2023/03/28 22:13:41;;;;;;;4.82;3.55;;;;;;;4.62;96.51;101624.81;6208812;23;20008;-89
2023/03/28 22:16:08;;;;;;;4.65;3.80;;;;;;;4.64;95.71;101623.00;6209258;23;20024;-89
2023/03/28 22:18:35;;;;;;;4.53;3.53;;;;;;;4.56;96.59;101615.22;6208627;23;20008;-90
2023/03/28 22:21:02;;;;;;;5.18;3.63;;;;;;;4.58;98.00;101612.56;6207884;23;20067;-88
2023/03/28 22:23:27;;;;;;;5.60;3.92;;;;;;;4.65;96.24;101624.78;6191556;23;20000;-89
2023/03/28 22:25:55;;;;;;;6.68;4.25;;;;;;;4.66;97.18;101627.38;6235757;23;20039;-88
2023/03/28 22:28:23;;;;;;;4.70;3.88;;;;;;;4.73;96.99;101615.84;6237831;23;20000;-90
2023/03/28 22:30:49;;;;;;;5.68;3.95;;;;;;;4.66;96.04;101619.47;6237497;23;19997;-89
2023/03/28 22:33:15;;;;;;;4.60;4.10;;;;;;;4.64;96.29;101617.72;6238715;23;20019;-89
2023/03/28 22:35:40;;;;;;;5.47;4.10;;;;;;;4.66;97.17;101606.28;6238314;23;20012;-89
2023/03/28 22:38:05;;;;;;;5.40;4.03;;;;;;;4.66;96.95;101610.69;6234035;23;20016;-89
2023/03/28 22:40:31;;;;;;;6.78;4.30;;;;;;;4.70;97.42;101615.03;6215901;23;20011;-89
2023/03/28 22:42:56;;;;;;;7.43;4.25;;;;;;;4.63;97.79;101597.53;6214617;23;20004;-89
2023/03/28 22:45:25;;;;;;;6.53;4.63;;;;;;;4.66;96.74;101594.88;6214607;23;20012;-89
2023/03/28 22:47:50;;;;;;;5.13;4.57;;;;;;;4.62;96.88;101583.47;6220109;23;20080;-89
2023/03/28 22:50:17;;;;;;;6.57;3.97;;;;;;;4.67;97.17;101580.78;6238947;23;20001;-89
2023/03/28 22:52:51;;;;;;;5.15;4.10;;;;;;;4.72;97.02;101586.84;6238598;23;20024;-88
2023/03/28 22:55:17;;;;;;;5.70;4.57;;;;;;;4.75;96.31;101570.97;6238952;23;19997;-88
2023/03/28 22:57:43;;;;;;;5.15;4.00;;;;;;;4.72;96.34;101568.38;6221668;23;20390;-88
2023/03/28 23:00:11;;;;;;;4.57;3.53;;;;;;;4.70;96.43;101559.66;6187491;23;20004;-90
2023/03/28 23:02:36;;;;;;;4.70;4.05;;;;;;;4.61;96.24;101551.88;6185965;23;20020;-88
2023/03/28 23:05:04;;;;;;;4.95;4.18;;;;;;;4.56;97.03;101540.53;6212303;23;20012;-89
2023/03/28 23:07:30;;;;;;;6.43;4.20;;;;;;;4.60;97.38;101553.66;6211808;23;20020;-90
2023/03/28 23:09:55;;;;;;;5.38;4.20;;;;;;;4.61;97.64;101546.59;6226690;23;20005;-89
2023/03/28 23:12:21;;;;;;;5.40;4.55;;;;;;;4.57;97.69;101537.00;6227431;23;20016;-86
2023/03/28 23:14:46;;;;;;;6.75;4.10;;;;;;;4.59;97.29;101536.06;6218021;23;20447;-88
2023/03/28 23:17:12;;;;;;;5.57;4.13;;;;;;;4.68;97.82;101550.88;6185059;23;20521;-88
2023/03/28 23:19:39;;;;;;;6.07;4.20;;;;;;;4.69;97.67;101544.72;6218584;23;20011;-88
2023/03/28 23:22:08;;;;;;;7.28;4.55;;;;;;;4.60;97.87;101523.75;6221409;23;20015;-88
2023/03/28 23:24:35;;;;;;;6.63;4.63;;;;;;;4.47;96.96;101507.25;6196307;23;19996;-89
2023/03/28 23:27:03;;;;;;;5.57;4.13;;;;;;;4.58;96.12;101518.50;6234368;23;20000;-88
2023/03/28 23:29:29;;;;;;;6.35;4.55;;;;;;;4.74;96.77;101546.38;6234210;23;20000;-86
2023/03/28 23:31:55;;;;;;;6.18;4.53;;;;;;;4.57;97.26;101514.13;6234492;23;20050;-89
2023/03/28 23:34:20;;;;;;;6.90;4.38;;;;;;;4.61;97.00;101507.06;6230857;23;20005;-90
2023/03/28 23:36:46;;;;;;;7.07;4.43;;;;;;;4.74;96.71;101527.94;6227520;23;20370;-89
2023/03/28 23:39:12;;;;;;;5.78;4.50;;;;;;;4.79;97.73;101538.41;6226221;23;20015;-90
2023/03/28 23:41:39;;;;;;;5.88;4.43;;;;;;;4.75;96.78;101528.78;6198880;23;20469;-89
2023/03/28 23:44:05;;;;;;;5.68;4.55;;;;;;;4.64;96.22;101502.59;6196164;23;20024;-88
2023/03/28 23:46:30;;;;;;;6.40;4.30;;;;;;;4.61;96.94;101488.59;6196462;23;20083;-90
2023/03/28 23:48:56;;;;;;;9.15;5.05;;;;;;;4.78;97.11;101515.56;6223515;23;20088;-89
2023/03/28 23:51:23;;;;;;;6.20;4.78;;;;;;;4.81;97.52;101514.63;6195791;23;20055;-88
2023/03/28 23:53:49;;;;;;;7.38;4.70;;;;;;;4.68;96.33;101487.59;6197649;23;20008;-88
2023/03/28 23:56:15;;;;;;;6.68;4.18;;;;;;;4.79;97.41;101504.09;6199545;23;20005;-89
2023/03/28 23:58:41;;;;;;;8.35;4.47;;;;;;;4.75;96.16;101510.34;6200220;23;20019;-89
